createdAt,value
2022-11-29T00:01:21.313Z,7.19
2022-11-29T00:03:48.142Z,7.20
2022-11-29T00:06:18.955Z,7.19
2022-11-29T00:08:46.483Z,7.21
2022-11-29T00:11:49.294Z,7.25
2022-11-29T00:14:18.629Z,7.21
2022-11-29T00:16:45.727Z,7.27
2022-11-29T00:19:13.324Z,7.25
2022-11-29T00:21:39.914Z,7.24
2022-11-29T00:24:07.774Z,7.27
2022-11-29T00:26:34.288Z,7.28
2022-11-29T00:29:00.783Z,7.27
2022-11-29T00:31:30.463Z,7.26
2022-11-29T00:33:58.292Z,7.25
2022-11-29T00:36:25.661Z,7.28
2022-11-29T00:38:53.040Z,7.24
2022-11-29T00:41:20.521Z,7.25
2022-11-29T00:43:48.364Z,7.21
2022-11-29T00:46:15.441Z,7.24
2022-11-29T00:48:43.013Z,7.26
2022-11-29T00:51:10.136Z,7.26
2022-11-29T00:53:37.347Z,7.21
2022-11-29T00:56:05.614Z,7.28
2022-11-29T00:58:32.948Z,7.25
2022-11-29T01:00:59.624Z,7.16
2022-11-29T01:03:26.800Z,7.24
2022-11-29T01:05:53.513Z,7.24
2022-11-29T01:08:20.111Z,7.26
2022-11-29T01:10:47.180Z,7.23
2022-11-29T01:13:14.107Z,7.23
2022-11-29T01:15:41.753Z,7.22
2022-11-29T01:18:08.418Z,7.22
2022-11-29T01:20:35.496Z,7.25
2022-11-29T01:23:02.916Z,7.23
2022-11-29T01:25:29.482Z,7.24
2022-11-29T01:27:56.502Z,7.21
2022-11-29T01:30:23.051Z,7.22
2022-11-29T01:32:49.778Z,7.22
2022-11-29T01:35:16.871Z,7.25
2022-11-29T01:37:43.395Z,7.21
2022-11-29T01:40:10.428Z,7.24
2022-11-29T01:42:36.972Z,7.23
2022-11-29T01:45:20.001Z,7.17
2022-11-29T01:47:48.640Z,7.18
2022-11-29T01:50:15.757Z,7.19
2022-11-29T01:52:42.810Z,7.17
2022-11-29T01:55:10.128Z,7.17
2022-11-29T01:57:40.268Z,7.19
2022-11-29T02:00:13.589Z,7.21
2022-11-29T02:02:44.866Z,7.22
2022-11-29T02:05:15.306Z,7.20
2022-11-29T02:07:46.220Z,7.23
2022-11-29T02:10:14.494Z,7.21
2022-11-29T02:12:59.418Z,7.23
2022-11-29T02:15:49.854Z,7.20
2022-11-29T02:18:29.417Z,7.19
2022-11-29T02:21:04.891Z,7.18
2022-11-29T02:23:39.358Z,7.22
2022-11-29T02:26:36.471Z,7.21
2022-11-29T02:29:42.529Z,7.22
2022-11-29T02:32:37.029Z,7.20
2022-11-29T02:35:13.132Z,7.18
2022-11-29T02:38:17.706Z,7.15
2022-11-29T02:40:58.414Z,7.14
2022-11-29T02:43:42.610Z,7.18
2022-11-29T02:46:27.757Z,7.13
2022-11-29T02:49:09.964Z,7.13
2022-11-29T02:51:47.798Z,7.12
2022-11-29T02:54:23.953Z,7.12
2022-11-29T02:57:19.426Z,7.13
2022-11-29T02:59:55.718Z,7.16
2022-11-29T03:02:46.917Z,7.15
2022-11-29T03:05:25.797Z,7.10
2022-11-29T03:08:07.784Z,7.14
2022-11-29T03:10:53.251Z,7.15
2022-11-29T03:13:27.903Z,7.18
2022-11-29T03:16:23.708Z,7.14
2022-11-29T03:18:56.341Z,7.14
2022-11-29T03:21:23.250Z,7.12
2022-11-29T03:23:53.863Z,7.12
2022-11-29T03:26:27.234Z,7.14
2022-11-29T03:29:07.914Z,7.07
2022-11-29T03:31:37.078Z,7.11
2022-11-29T03:34:27.889Z,7.10
2022-11-29T03:37:05.989Z,7.12
2022-11-29T03:39:44.680Z,7.12
2022-11-29T03:42:18.215Z,7.13
2022-11-29T03:45:10.454Z,7.12
2022-11-29T03:47:44.982Z,7.13
2022-11-29T03:50:19.618Z,7.13
2022-11-29T03:52:56.021Z,7.11
2022-11-29T03:56:04.184Z,7.15
2022-11-29T03:59:03.702Z,7.13
2022-11-29T04:01:49.197Z,7.15
2022-11-29T04:04:19.180Z,7.18
2022-11-29T04:07:00.550Z,7.16
2022-11-29T04:09:34.232Z,7.13
2022-11-29T04:12:34.721Z,7.15
2022-11-29T04:15:29.417Z,7.18
2022-11-29T04:18:24.046Z,7.16
2022-11-29T04:21:18.113Z,7.11
2022-11-29T04:24:02.493Z,7.11
2022-11-29T04:26:37.970Z,7.17
2022-11-29T04:29:49.677Z,7.18
2022-11-29T04:32:50.791Z,7.18
2022-11-29T04:35:32.253Z,7.17
2022-11-29T04:38:20.630Z,7.16
2022-11-29T04:41:12.111Z,7.09
2022-11-29T04:43:44.598Z,7.13
2022-11-29T04:46:23.950Z,7.14
2022-11-29T04:49:05.402Z,7.14
2022-11-29T04:51:43.765Z,7.15
2022-11-29T04:54:47.865Z,7.17
2022-11-29T04:57:37.520Z,7.16
2022-11-29T05:00:11.012Z,7.16
2022-11-29T05:02:54.563Z,7.13
2022-11-29T05:05:30.344Z,7.14
2022-11-29T05:08:02.682Z,7.08
2022-11-29T05:10:39.654Z,7.12
2022-11-29T05:13:21.152Z,7.11
2022-11-29T05:16:09.706Z,7.07
2022-11-29T05:18:49.117Z,7.13
2022-11-29T05:21:22.256Z,7.09
2022-11-29T05:24:02.754Z,7.09
2022-11-29T05:26:31.270Z,7.10
2022-11-29T05:28:57.861Z,7.11
2022-11-29T05:31:36.690Z,7.11
2022-11-29T05:34:12.449Z,7.11
2022-11-29T05:36:54.997Z,7.05
2022-11-29T05:39:57.093Z,7.07
2022-11-29T05:43:06.839Z,7.09
2022-11-29T05:45:58.530Z,7.07
2022-11-29T05:48:45.308Z,7.06
2022-11-29T05:51:23.285Z,6.99
2022-11-29T05:54:24.200Z,6.98
2022-11-29T05:57:05.985Z,6.94
2022-11-29T05:59:35.939Z,6.90
2022-11-29T06:02:15.248Z,6.91
2022-11-29T06:04:57.472Z,6.90
2022-11-29T06:07:33.261Z,6.90
2022-11-29T06:10:05.186Z,6.83
2022-11-29T06:12:36.210Z,6.84
2022-11-29T06:15:24.534Z,6.78
2022-11-29T06:18:13.094Z,6.79
2022-11-29T06:20:46.124Z,6.69
2022-11-29T06:23:19.974Z,6.70
2022-11-29T06:26:17.035Z,6.76
2022-11-29T06:29:02.987Z,6.77
2022-11-29T06:31:39.810Z,6.73
2022-11-29T06:34:30.382Z,6.74
2022-11-29T06:37:05.194Z,6.74
2022-11-29T06:39:32.713Z,6.76
2022-11-29T06:41:59.240Z,6.76
2022-11-29T06:44:27.204Z,6.74
2022-11-29T06:47:20.466Z,6.64
2022-11-29T06:49:49.378Z,6.62
2022-11-29T06:52:34.747Z,6.59
2022-11-29T06:55:01.481Z,6.60
2022-11-29T06:57:30.928Z,6.59
2022-11-29T07:00:18.893Z,6.60
2022-11-29T07:03:14.869Z,6.62
2022-11-29T07:05:41.713Z,6.61
2022-11-29T07:08:18.700Z,6.63
2022-11-29T07:10:49.700Z,6.65
2022-11-29T07:13:18.595Z,6.59
2022-11-29T07:16:11.210Z,6.59
2022-11-29T07:18:46.634Z,6.55
2022-11-29T07:21:41.033Z,6.53
2022-11-29T07:24:36.066Z,6.52
2022-11-29T07:27:28.627Z,6.48
2022-11-29T07:30:16.990Z,6.50
2022-11-29T07:33:34.814Z,6.49
2022-11-29T07:36:44.569Z,6.50
2022-11-29T07:39:20.096Z,6.41
2022-11-29T07:41:54.234Z,6.51
2022-11-29T07:44:21.271Z,6.51
2022-11-29T07:46:47.815Z,6.51
2022-11-29T07:49:14.429Z,6.48
2022-11-29T07:51:41.040Z,6.45
2022-11-29T07:54:07.822Z,6.44
2022-11-29T07:56:34.376Z,6.43
2022-11-29T07:59:01.405Z,6.38
2022-11-29T08:01:28.098Z,6.47
2022-11-29T08:03:54.614Z,6.42
2022-11-29T08:06:27.317Z,6.41
2022-11-29T08:08:54.380Z,6.54
2022-11-29T08:11:21.507Z,6.56
2022-11-29T08:13:48.647Z,6.58
2022-11-29T08:16:18.990Z,6.59
2022-11-29T08:18:45.697Z,6.58
2022-11-29T08:21:12.809Z,6.62
2022-11-29T08:23:39.335Z,6.60
2022-11-29T08:26:06.013Z,6.64
2022-11-29T08:28:32.561Z,6.63
2022-11-29T08:31:05.111Z,6.62
2022-11-29T08:33:32.380Z,6.59
2022-11-29T08:36:18.197Z,6.56
2022-11-29T08:38:45.167Z,6.62
2022-11-29T08:41:14.286Z,6.56
2022-11-29T08:43:41.284Z,6.49
2022-11-29T08:46:13.669Z,6.52
2022-11-29T08:48:43.385Z,6.52
2022-11-29T08:51:09.979Z,6.56
2022-11-29T08:53:42.907Z,6.63
2022-11-29T08:56:41.746Z,6.61
2022-11-29T08:58:57.629Z,6.59
2022-11-29T09:01:24.214Z,6.54
2022-11-29T09:03:59.799Z,6.55
2022-11-29T09:06:28.493Z,6.49
2022-11-29T09:08:56.793Z,6.48
2022-11-29T09:11:25.101Z,6.50
2022-11-29T09:13:55.045Z,6.52
2022-11-29T09:16:25.313Z,6.54
2022-11-29T09:18:52.825Z,6.50
2022-11-29T09:21:19.376Z,6.49
2022-11-29T09:23:45.939Z,6.49
2022-11-29T09:26:18.883Z,6.50
2022-11-29T09:28:46.815Z,6.55
2022-11-29T09:31:15.852Z,6.59
2022-11-29T09:33:42.476Z,6.62
2022-11-29T09:36:11.046Z,6.63
2022-11-29T09:38:38.597Z,6.64
2022-11-29T09:41:14.191Z,6.69
2022-11-29T09:44:05.997Z,6.66
2022-11-29T09:46:47.648Z,6.65
2022-11-29T09:49:48.760Z,6.67
2022-11-29T09:52:36.631Z,6.68
2022-11-29T09:55:37.396Z,6.70
2022-11-29T09:58:09.946Z,6.72
2022-11-29T10:00:47.817Z,6.65
2022-11-29T10:03:23.336Z,6.65
2022-11-29T10:05:57.488Z,6.63
2022-11-29T10:08:41.949Z,6.65
2022-11-29T10:11:37.596Z,6.71
2022-11-29T10:14:15.509Z,6.64
2022-11-29T10:17:12.939Z,6.68
2022-11-29T10:19:52.909Z,6.63
2022-11-29T10:22:30.942Z,6.71
2022-11-29T10:25:01.707Z,6.69
2022-11-29T10:27:29.781Z,6.64
2022-11-29T10:29:59.244Z,6.72
2022-11-29T10:32:30.996Z,6.72
2022-11-29T10:35:00.646Z,6.73
2022-11-29T10:37:32.671Z,6.67
2022-11-29T10:40:08.104Z,6.74
2022-11-29T10:42:49.764Z,6.61
2022-11-29T10:45:25.413Z,6.65
2022-11-29T10:47:54.607Z,6.71
2022-11-29T10:50:30.236Z,6.75
2022-11-29T10:53:06.811Z,6.78
2022-11-29T10:55:43.511Z,6.88
2022-11-29T10:58:17.032Z,6.92
2022-11-29T11:00:51.806Z,6.99
2022-11-29T11:03:42.572Z,7.01
2022-11-29T11:06:15.840Z,6.92
2022-11-29T11:08:46.706Z,6.92
2022-11-29T11:11:15.392Z,6.84
2022-11-29T11:13:42.699Z,6.92
2022-11-29T11:16:16.161Z,7.00
2022-11-29T11:18:43.821Z,7.03
2022-11-29T11:21:13.237Z,7.05
2022-11-29T11:23:55.068Z,7.08
2022-11-29T11:26:23.038Z,7.18
2022-11-29T11:29:02.706Z,7.30
2022-11-29T11:31:39.956Z,7.39
2022-11-29T11:34:35.405Z,7.50
2022-11-29T11:37:32.406Z,7.48
2022-11-29T11:40:19.530Z,7.59
2022-11-29T11:42:46.766Z,7.64
2022-11-29T11:45:13.230Z,7.77
2022-11-29T11:47:46.512Z,7.68
2022-11-29T11:50:37.436Z,7.84
2022-11-29T11:53:17.811Z,7.86
2022-11-29T11:55:54.004Z,7.84
2022-11-29T11:58:45.293Z,7.82
2022-11-29T12:01:11.747Z,7.87
2022-11-29T12:03:57.055Z,7.85
2022-11-29T12:06:32.638Z,7.79
2022-11-29T12:09:08.505Z,7.73
2022-11-29T12:11:53.225Z,7.68
2022-11-29T12:14:37.271Z,7.62
2022-11-29T12:17:20.183Z,7.61
2022-11-29T12:19:58.433Z,7.56
2022-11-29T12:22:32.188Z,7.54
2022-11-29T12:25:05.037Z,7.54
2022-11-29T12:27:32.006Z,7.52
2022-11-29T12:29:58.576Z,7.51
2022-11-29T12:32:33.913Z,7.57
2022-11-29T12:35:06.983Z,7.56
2022-11-29T12:37:55.667Z,7.60
2022-11-29T12:40:44.480Z,7.55
2022-11-29T12:43:37.170Z,7.64
2022-11-29T12:46:27.209Z,7.70
2022-11-29T12:49:15.725Z,7.73
2022-11-29T12:52:10.887Z,7.77
2022-11-29T12:55:16.174Z,7.96
2022-11-29T12:58:04.639Z,8.07
2022-11-29T13:00:50.275Z,8.06
2022-11-29T13:03:25.531Z,8.05
2022-11-29T13:06:23.772Z,8.00
2022-11-29T13:09:28.193Z,8.00
2022-11-29T13:12:17.250Z,7.97
2022-11-29T13:14:59.376Z,7.96
2022-11-29T13:17:50.437Z,7.97
2022-11-29T13:20:26.284Z,7.97
2022-11-29T13:23:20.752Z,7.97
2022-11-29T13:25:54.472Z,7.92
2022-11-29T13:28:33.505Z,7.89
2022-11-29T13:31:07.424Z,7.83
2022-11-29T13:33:53.564Z,7.81
2022-11-29T13:36:34.396Z,7.78
2022-11-29T13:39:16.154Z,7.72
2022-11-29T13:42:01.358Z,7.65
2022-11-29T13:44:35.469Z,7.59
2022-11-29T13:47:11.045Z,7.52
2022-11-29T13:49:54.726Z,7.52
2022-11-29T13:52:47.734Z,7.52
2022-11-29T13:55:14.656Z,7.57
2022-11-29T13:58:16.375Z,7.61
2022-11-29T14:00:44.055Z,7.66
2022-11-29T14:03:19.730Z,7.73
2022-11-29T14:06:03.870Z,7.82
2022-11-29T14:09:02.068Z,7.87
2022-11-29T14:11:36.507Z,7.91
2022-11-29T14:14:17.606Z,7.96
2022-11-29T14:16:44.055Z,8.01
2022-11-29T14:19:10.498Z,8.05
2022-11-29T14:21:55.971Z,8.10
2022-11-29T14:24:38.000Z,8.14
2022-11-29T14:27:11.135Z,8.21
2022-11-29T14:29:53.952Z,8.28
2022-11-29T14:32:34.433Z,8.31
2022-11-29T14:35:12.846Z,8.33
2022-11-29T14:38:23.967Z,8.37
2022-11-29T14:41:03.231Z,8.32
2022-11-29T14:43:34.689Z,8.26
2022-11-29T14:46:16.214Z,8.26
2022-11-29T14:48:55.521Z,8.25
2022-11-29T14:51:24.243Z,8.21
2022-11-29T14:54:12.205Z,8.17
2022-11-29T14:56:44.495Z,8.18
2022-11-29T14:59:44.966Z,8.17
2022-11-29T15:02:26.784Z,8.11
2022-11-29T15:04:56.844Z,8.08
2022-11-29T15:07:28.855Z,8.07
2022-11-29T15:10:00.677Z,7.99
2022-11-29T15:12:30.519Z,7.97
2022-11-29T15:15:23.961Z,7.95
2022-11-29T15:18:11.289Z,7.93
2022-11-29T15:21:10.233Z,7.91
2022-11-29T15:23:43.988Z,7.85
2022-11-29T15:26:25.247Z,7.82
2022-11-29T15:28:51.726Z,7.84
2022-11-29T15:31:20.693Z,7.83
2022-11-29T15:33:49.259Z,7.82
2022-11-29T15:36:24.236Z,7.82
2022-11-29T15:38:56.827Z,7.79
2022-11-29T15:41:31.980Z,7.76
2022-11-29T15:44:22.557Z,7.77
2022-11-29T15:46:49.625Z,7.73
2022-11-29T15:49:18.217Z,7.72
2022-11-29T15:51:50.224Z,7.72
2022-11-29T15:54:34.749Z,7.68
2022-11-29T15:57:05.173Z,7.65
2022-11-29T15:59:31.730Z,7.67
2022-11-29T16:02:02.744Z,7.66
2022-11-29T16:04:29.496Z,7.64
2022-11-29T16:06:57.703Z,7.63
2022-11-29T16:09:40.529Z,7.62
2022-11-29T16:12:14.014Z,7.61
2022-11-29T16:14:58.692Z,7.60
2022-11-29T16:17:28.274Z,7.61
2022-11-29T16:20:25.441Z,7.60
2022-11-29T16:23:08.773Z,7.62
2022-11-29T16:25:53.865Z,7.60
2022-11-29T16:28:20.962Z,7.62
2022-11-29T16:30:48.248Z,7.61
2022-11-29T16:33:23.816Z,7.56
2022-11-29T16:35:51.997Z,7.56
2022-11-29T16:38:23.004Z,7.57
2022-11-29T16:41:24.866Z,7.58
2022-11-29T16:43:55.517Z,7.55
2022-11-29T16:46:22.589Z,7.59
2022-11-29T16:48:50.195Z,7.56
2022-11-29T16:51:27.312Z,7.57
2022-11-29T16:53:54.364Z,7.53
2022-11-29T16:56:23.505Z,7.53
2022-11-29T16:59:20.531Z,7.55
2022-11-29T17:01:47.855Z,7.51
2022-11-29T17:04:24.238Z,7.55
2022-11-29T17:06:53.800Z,7.54
2022-11-29T17:09:24.340Z,7.54
2022-11-29T17:11:53.121Z,7.54
2022-11-29T17:14:19.720Z,7.54
2022-11-29T17:16:49.313Z,7.53
2022-11-29T17:19:16.238Z,7.52
2022-11-29T17:21:42.781Z,7.47
2022-11-29T17:24:15.691Z,7.52
2022-11-29T17:26:43.349Z,7.51
2022-11-29T17:29:11.242Z,7.53
2022-11-29T17:31:37.872Z,7.47
2022-11-29T17:34:04.802Z,7.53
2022-11-29T17:36:31.442Z,7.50
2022-11-29T17:38:59.873Z,7.48
2022-11-29T17:41:28.220Z,7.51
2022-11-29T17:43:57.041Z,7.53
2022-11-29T17:46:27.016Z,7.52
2022-11-29T17:48:54.436Z,7.48
2022-11-29T17:51:54.366Z,7.51
2022-11-29T17:54:11.148Z,7.49
2022-11-29T17:56:37.943Z,7.49
2022-11-29T17:59:05.864Z,7.51
2022-11-29T18:01:34.733Z,7.45
2022-11-29T18:04:02.536Z,7.49
2022-11-29T18:06:33.489Z,7.49
2022-11-29T18:09:01.529Z,7.46
2022-11-29T18:11:46.500Z,7.51
2022-11-29T18:14:19.825Z,7.48
2022-11-29T18:16:46.568Z,7.48
2022-11-29T18:19:15.868Z,7.51
2022-11-29T18:21:42.668Z,7.51
2022-11-29T18:24:09.363Z,7.48
2022-11-29T18:26:37.546Z,7.52
2022-11-29T18:29:05.947Z,7.52
2022-11-29T18:31:35.490Z,7.50
2022-11-29T18:34:09.811Z,7.46
2022-11-29T18:36:43.065Z,7.47
2022-11-29T18:39:14.126Z,7.46
2022-11-29T18:41:43.403Z,7.48
2022-11-29T18:44:13.034Z,7.50
2022-11-29T18:46:41.201Z,7.45
2022-11-29T18:49:09.391Z,7.46
2022-11-29T18:51:37.509Z,7.48
2022-11-29T18:54:05.210Z,7.47
2022-11-29T18:56:34.576Z,7.46
2022-11-29T18:59:07.115Z,7.48
2022-11-29T19:01:37.841Z,7.46
2022-11-29T19:04:04.832Z,7.46
2022-11-29T19:06:39.421Z,7.48
2022-11-29T19:09:10.723Z,7.40
2022-11-29T19:11:37.726Z,7.48
2022-11-29T19:14:06.483Z,7.51
2022-11-29T19:16:34.638Z,7.52
2022-11-29T19:19:02.054Z,7.51
2022-11-29T19:21:31.858Z,7.49
2022-11-29T19:24:04.566Z,7.48
2022-11-29T19:26:32.559Z,7.48
2022-11-29T19:29:00.699Z,7.53
2022-11-29T19:31:27.932Z,7.47
2022-11-29T19:33:55.301Z,7.47
2022-11-29T19:36:24.814Z,7.48
2022-11-29T19:38:54.158Z,7.50
2022-11-29T19:41:24.365Z,7.46
2022-11-29T19:43:52.046Z,7.46
2022-11-29T19:46:24.871Z,7.49
2022-11-29T19:48:56.693Z,7.49
2022-11-29T19:51:24.245Z,7.48
2022-11-29T19:53:55.627Z,7.47
2022-11-29T19:56:23.539Z,7.50
2022-11-29T19:58:50.837Z,7.47
2022-11-29T20:01:23.272Z,7.55
2022-11-29T20:03:50.779Z,7.50
2022-11-29T20:06:20.128Z,7.52
2022-11-29T20:08:47.736Z,7.54
2022-11-29T20:11:20.982Z,7.52
2022-11-29T20:13:59.187Z,7.51
2022-11-29T20:16:27.653Z,7.54
2022-11-29T20:18:54.913Z,7.55
2022-11-29T20:21:24.109Z,7.46
2022-11-29T20:23:59.044Z,7.54
2022-11-29T20:26:26.662Z,7.54
2022-11-29T20:28:53.196Z,7.56
2022-11-29T20:31:22.848Z,7.55
2022-11-29T20:33:52.184Z,7.53
2022-11-29T20:36:33.826Z,7.53
2022-11-29T20:39:13.557Z,7.52
2022-11-29T20:42:06.881Z,7.51
2022-11-29T20:44:53.805Z,7.55
2022-11-29T20:47:26.372Z,7.47
2022-11-29T20:49:53.570Z,7.51
2022-11-29T20:52:43.003Z,7.42
2022-11-29T20:55:10.056Z,7.38
2022-11-29T20:57:38.391Z,7.36
2022-11-29T21:00:11.306Z,7.42
2022-11-29T21:02:38.274Z,7.37
2022-11-29T21:05:05.573Z,7.35
2022-11-29T21:07:32.209Z,7.37
2022-11-29T21:10:01.360Z,7.36
2022-11-29T21:12:29.874Z,7.34
2022-11-29T21:14:56.992Z,7.32
2022-11-29T21:17:27.629Z,7.34
2022-11-29T21:19:58.696Z,7.32
2022-11-29T21:22:41.243Z,7.29
2022-11-29T21:25:32.028Z,7.33
2022-11-29T21:28:00.479Z,7.31
2022-11-29T21:30:27.290Z,7.28
2022-11-29T21:32:54.650Z,7.30
2022-11-29T21:35:21.216Z,7.31
2022-11-29T21:37:48.170Z,7.30
2022-11-29T21:40:15.179Z,7.30
2022-11-29T21:42:41.751Z,7.28
2022-11-29T21:45:14.846Z,7.31
2022-11-29T21:47:43.370Z,7.30
2022-11-29T21:50:10.878Z,7.27
2022-11-29T21:52:37.981Z,7.21
2022-11-29T21:55:05.423Z,7.26
2022-11-29T21:57:31.992Z,7.23
2022-11-29T21:59:58.494Z,7.20
2022-11-29T22:02:25.117Z,7.20
2022-11-29T22:04:51.760Z,7.18
2022-11-29T22:07:18.358Z,7.21
2022-11-29T22:09:44.918Z,7.20
2022-11-29T22:12:32.655Z,7.20
2022-11-29T22:14:58.853Z,7.17
2022-11-29T22:17:25.497Z,7.15
2022-11-29T22:19:52.024Z,7.13
2022-11-29T22:22:18.713Z,7.08
2022-11-29T22:24:45.474Z,7.11
2022-11-29T22:27:12.226Z,7.07
2022-11-29T22:29:38.734Z,7.05
2022-11-29T22:32:06.252Z,7.05
2022-11-29T22:34:32.810Z,7.03
2022-11-29T22:36:59.813Z,6.96
2022-11-29T22:39:26.418Z,6.99
2022-11-29T22:41:55.046Z,6.94
2022-11-29T22:44:25.889Z,6.91
2022-11-29T22:46:52.517Z,6.93
2022-11-29T22:49:19.254Z,6.90
2022-11-29T22:51:45.767Z,6.90
2022-11-29T22:54:15.474Z,6.82
2022-11-29T22:56:44.020Z,6.90
2022-11-29T22:59:11.625Z,6.94
2022-11-29T23:01:39.943Z,6.94
2022-11-29T23:04:08.110Z,6.95
2022-11-29T23:06:40.976Z,6.96
2022-11-29T23:09:10.749Z,6.97
2022-11-29T23:11:38.132Z,6.95
2022-11-29T23:14:05.457Z,6.96
2022-11-29T23:16:33.034Z,6.96
2022-11-29T23:19:00.207Z,6.99
2022-11-29T23:21:29.907Z,7.01
2022-11-29T23:23:57.108Z,6.97
2022-11-29T23:26:25.265Z,6.95
2022-11-29T23:28:52.636Z,6.96
2022-11-29T23:31:19.825Z,6.92
2022-11-29T23:33:46.393Z,6.95
2022-11-29T23:36:13.972Z,6.92
2022-11-29T23:38:40.540Z,6.86
2022-11-29T23:41:07.988Z,6.89
2022-11-29T23:43:37.368Z,6.85
2022-11-29T23:46:17.785Z,6.83
2022-11-29T23:48:45.041Z,6.78
2022-11-29T23:51:12.875Z,6.78
2022-11-29T23:53:39.869Z,6.75
2022-11-29T23:56:11.029Z,6.74
2022-11-29T23:58:38.148Z,6.72
